• Join FlightAware (Why Join?)
  • Login
  • US Flag 
12:49AM EDT


 

Airport Tracker/Info


-or-


 

Live Flight TrackerFlight Track Log ✈ N870RW ✈ 29-Apr-2012 ✈ KLGA - KSAV

Flight Track Log - Related Links

Times and Time Zones

All times are in EDT time to prevent confusion due to time zone crossing. See the N870RW flight status page for this flight to view local times or setup timezone preferences in your user account.

Time Position Orientation Groundspeed Altitude Reporting Facility
EDT Latitude Longitude Course Direction KTS MPH feet Rate Location/Type
08:03PM 40.8167 -73.8500 57° Northeast 169 194 2,400  Level New York TRACON
08:04PM 40.8500 -73.7833 131° Southeast 240 276 4,800 2,640 Climbing New York TRACON
08:05PM 40.8167 -73.7333 189° South 297 342 7,500 2,640 Climbing New York TRACON
08:06PM 40.7333 -73.7500 189° South 295 339 10,100 1,680 Climbing New York TRACON
08:07PM 40.6500 -73.7667 148° Southeast 306 352 10,900 660 Climbing New York TRACON
08:09PM 40.4547 -73.6050 144° Southeast 380 437 12,100 960 Climbing New York Center
08:10PM 40.3711 -73.5253 144° Southeast 400 460 13,800 1,980 Climbing New York Center
08:11PM 40.2653 -73.4258 147° Southeast 424 488 16,100 1,980 Climbing New York Center
08:12PM 40.1731 -73.3461 186° South 443 510 17,800 1,320 Climbing New York Center
08:13PM 40.0519 -73.3633 219° Southwest 400 460 18,800 1,140 Climbing New York Center
08:14PM 40.0061 -73.4111 218° Southwest 376 433 19,600 1,560 Climbing Washington Center
08:15PM 39.9203 -73.4975 219° Southwest 376 433 21,300 1,620 Climbing Washington Center
08:16PM 39.8322 -73.5894 208° Southwest 396 456 22,900 780 Climbing Washington Center
08:17PM 39.7333 -73.6569 220° Southwest 409 471 23,000 600 Climbing Washington Center
08:18PM 39.6492 -73.7481 222° Southwest 409 471 24,100 1,080 Climbing Washington Center
08:19PM 39.5633 -73.8472 221° Southwest 409 471 25,200 1,080 Climbing Washington Center
08:20PM 39.4750 -73.9461 221° Southwest 419 482 26,300 1,200 Climbing Washington Center
08:21PM 39.3847 -74.0475 221° Southwest 430 495 27,600 1,320 Climbing Washington Center
08:22PM 39.2942 -74.1489 220° Southwest 430 495 29,000 1,200 Climbing Washington Center
08:23PM 39.2017 -74.2497 216° Southwest 430 495 30,000 480 Climbing Washington Center
08:24PM 39.1006 -74.3453 217° Southwest 440 506 30,000  Level Washington Center
08:25PM 38.9994 -74.4431 215° Southwest 453 521 30,000  Level Washington Center
08:26PM 38.9189 -74.5164 215° Southwest 458 527 30,000  Level Washington Center
08:27PM 38.8072 -74.6167 216° Southwest 452 520 30,000  Level Washington Center
08:28PM 38.7078 -74.7083 216° Southwest 452 520 30,000  Level Washington Center
08:29PM 38.6083 -74.8000 213° Southwest 452 520 30,000  Level Washington Center
08:30PM 38.5067 -74.8833 216° Southwest 447 514 30,000  Level Washington Center
08:31PM 38.4072 -74.9744 216° Southwest 447 514 30,000  Level Washington Center
08:32PM 38.3011 -75.0731 216° Southwest 447 514 30,000  Level Washington Center
08:33PM 38.1994 -75.1664 214° Southwest 447 514 30,000  Level Washington Center
08:34PM 38.0956 -75.2567 215° Southwest 447 514 30,000  Level Washington Center
08:35PM 37.9936 -75.3467 215° Southwest 447 514 30,000  Level Washington Center
08:36PM 37.8936 -75.4367 215° Southwest 447 514 30,000  Level Washington Center
08:37PM 37.7894 -75.5286 214° Southwest 447 514 30,000  Level Washington Center
08:38PM 37.6872 -75.6156 214° Southwest 447 514 30,000  Level Washington Center
08:39PM 37.5850 -75.7019 215° Southwest 447 514 30,000  Level Washington Center
08:40PM 37.4828 -75.7933 215° Southwest 447 514 30,000  Level Washington Center
08:41PM 37.3822 -75.8819 214° Southwest 447 514 30,000  Level Washington Center
08:42PM 37.2819 -75.9678 214° Southwest 447 514 30,000  Level Washington Center
08:43PM 37.1775 -76.0558 215° Southwest 447 514 30,000  Level Washington Center
08:44PM 37.0789 -76.1411 212° Southwest 447 514 30,000  Level Washington Center
08:45PM 36.9847 -76.2158 214° Southwest 447 514 30,000  Level Washington Center
08:46PM 36.8800 -76.3033 214° Southwest 447 514 30,000  Level Washington Center
08:47PM 36.7772 -76.3906 216° Southwest 447 514 30,000  Level Washington Center
08:48PM 36.6764 -76.4828 213° Southwest 447 514 30,000  Level Washington Center
08:49PM 36.5736 -76.5669 215° Southwest 447 514 30,000  Level Washington Center
08:50PM 36.4664 -76.6586 214° Southwest 447 514 30,000  Level Washington Center
08:51PM 36.3633 -76.7450 213° Southwest 452 520 30,000  Level Washington Center
08:52PM 36.2581 -76.8311 215° Southwest 452 520 30,000  Level Washington Center
08:53PM 36.1550 -76.9194 213° Southwest 452 520 30,000  Level Washington Center
08:54PM 36.0475 -77.0050 213° Southwest 452 520 30,000  Level Washington Center
08:55PM 35.9400 -77.0903 216° Southwest 452 520 30,000  Level Washington Center
08:56PM 35.8408 -77.1781 213° Southwest 458 527 30,000  Level Washington Center
08:57PM 35.7356 -77.2631 214° Southwest 453 521 30,000  Level Washington Center
08:58PM 35.6278 -77.3528 212° Southwest 453 521 30,000  Level Washington Center
08:59PM 35.5136 -77.4419 214° Southwest 453 521 30,000  Level Washington Center
09:00PM 35.4081 -77.5289 218° Southwest 458 527 30,000  Level Washington Center
09:01PM 35.3083 -77.6231 220° Southwest 458 527 30,000  Level Washington Center
09:02PM 35.2128 -77.7197 222° Southwest 458 527 30,000  Level Washington Center
09:03PM 35.1192 -77.8217 221° Southwest 458 527 30,000  Level Washington Center
09:05PM 34.9331 -78.0158 218° Southwest 466 536 30,000  Level Jacksonville Center
09:06PM 34.8325 -78.1128 220° Southwest 466 536 30,000  Level Jacksonville Center
09:07PM 34.7544 -78.1928 222° Southwest 472 543 30,000  Level Jacksonville Center
09:08PM 34.6419 -78.3150 220° Southwest 467 537 30,000  Level Jacksonville Center
09:09PM 34.5456 -78.4133 219° Southwest 467 537 30,000  Level Jacksonville Center
09:10PM 34.4547 -78.5036 220° Southwest 474 545 30,000  Level Jacksonville Center
09:11PM 34.3581 -78.6017 220° Southwest 469 540 30,000  Level Jacksonville Center
09:12PM 34.2611 -78.6994 221° Southwest 469 540 30,000  Level Jacksonville Center
09:13PM 34.1622 -78.8019 226° Southwest 469 540 30,000  Level Jacksonville Center
09:14PM 34.0742 -78.9114 225° Southwest 469 540 30,000  Level Jacksonville Center
09:15PM 33.9856 -79.0181 224° Southwest 463 533 30,000  Level Jacksonville Center
09:16PM 33.8950 -79.1247 226° Southwest 458 527 30,000 -360 Level Jacksonville Center
09:17PM 33.8064 -79.2336 224° Southwest 458 527 29,300 -900 Descending Jacksonville Center
09:18PM 33.7072 -79.3475 225° Southwest 446 513 28,300 -1,080 Descending Jacksonville Center
09:19PM 33.6225 -79.4481 225° Southwest 441 507 27,200 -1,080 Descending Jacksonville Center
09:20PM 33.5336 -79.5536 226° Southwest 441 507 26,200 -1,020 Descending Jacksonville Center
09:21PM 33.4525 -79.6539 225° Southwest 441 507 25,200 -1,020 Descending Jacksonville Center
09:22PM 33.3675 -79.7564 224° Southwest 436 502 24,200 -1,020 Descending Jacksonville Center
09:23PM 33.2844 -79.8539 225° Southwest 436 502 23,200 -1,020 Descending Jacksonville Center
09:24PM 33.2011 -79.9533 224° Southwest 425 489 22,200 -600 Descending Jacksonville Center
09:25PM 33.1197 -80.0478 226° Southwest 425 489 22,000 -120 Descending Jacksonville Center
09:26PM 33.0467 -80.1369 225° Southwest 425 489 22,000  Level Jacksonville Center
09:27PM 32.9633 -80.2361 223° Southwest 419 482 22,000 -780 Level Jacksonville Center
09:28PM 32.8775 -80.3325 225° Southwest 427 491 20,500 -1,800 Descending Jacksonville Center
09:29PM 32.8000 -80.4236 225° Southwest 416 479 18,400 -2,100 Descending Jacksonville Center
09:30PM 32.7244 -80.5122 225° Southwest 404 465 16,300 -2,040 Descending Jacksonville Center
09:31PM 32.6531 -80.5981 224° Southwest 385 443 14,400 -1,920 Descending Jacksonville Center
09:32PM 32.5814 -80.6811 225° Southwest 375 432 12,500 -1,740 Descending Jacksonville Center
09:33PM 32.5119 -80.7642 228° Southwest 363 418 11,000 -960 Descending Jacksonville Center
09:34PM 32.4506 -80.8444 231° Southwest 357 411 10,600 -1,020 Descending Jacksonville Center
09:35PM 32.3936 -80.9292 233° Southwest 303 349 9,000 -1,800 Descending Jacksonville Center
09:36PM 32.3506 -80.9967 232° Southwest 292 336 7,100 -2,040 Descending Jacksonville Center
09:37PM 32.3017 -81.0714 234° Southwest 292 336 5,000 -1,620 Descending Jacksonville Center
09:38PM 32.2567 -81.1433 244° Southwest 271 312 3,900 -900 Descending Jacksonville Center
09:39PM 32.2306 -81.2078 249° West 220 253 3,300 -600 Descending Jacksonville Center
09:40PM 32.2106 -81.2694 208° Southwest 210 242 2,700 -600 Descending Jacksonville Center
09:42PM 32.1503 -81.3075 208° Southwest 129 148 1,500 -600 Descending Jacksonville Center